Minneapolis, Minnesota
Traffic Map
Current Weather Conditions
Minneapolis, Minnesota
Broken Clouds
Broken Clouds
60°
Feels Like: 60°
Wind Chill: 60° Ceiling: 13000
Heat Index: 60° Visibility: 10mi
Dew Point: 38° Wind: 14mph
Humidity: 44% Direction: 300° (WNW)
Pressure: 29.94in Gusts: 0mph
Raw Report DataKMSP 250753Z 30012KT 10SM BKN130 16/03 A2994 RMK AO2 SLP137 T01560033
Traffic Incident Summary
Active as of:
Severity:
Category:
InformationThere was an issue retrieving the traffic information for this location. Please try a different location or try again shortly.
Advertisements
Track Severe Weather on mobile